Washington, NJ (07882)

4:48 PM EDT on August 26, 2016 (GMT -0400)
Bryans Road near Musconetcong River | | Change Station

Elev 396 ft 40.71 °N, 74.98 °W | Updated 11 minutes ago

Partly Cloudy
Partly Cloudy
91.7 °F
Feels Like 100 °F
N
5.0
Wind Variable Wind from North
Gusts 8.0 mph

Today
High -- | Low -- °F
--% Chance of Precip.
Yesterday
High -- | Low -- °F
Precip. -- in
Pressure 29.97 in
Visibility 10.0 miles
Clouds Few 6000 ft
Heat Index 100 °F
Dew Point 73 °F
Humidity 54%
Rainfall 0.00 in
Snow Depth Not available.
6:21 AM 7:41 PM
Waning Crescent, 31% visible
METAR KSMQ 261953Z AUTO 35008KT 10SM FEW060 33/18 A2998 RMK AO2 SLP149 T03330183
Pressure 29.97 in
Visibility 10.0 miles
Clouds Few 6000 ft
Heat Index 100 °F
Dew Point 73 °F
Humidity 54%
Rainfall 0.00 in
Snow Depth Not available.
6:21 AM 7:41 PM
Waning Crescent, 31% visible
METAR KSMQ 261953Z AUTO 35008KT 10SM FEW060 33/18 A2998 RMK AO2 SLP149 T03330183

10-Day Weather Forecast

Almanac

Astronomy

Aug. 26, 2016 Rise Set
Actual Time
Civil Twilight
Nautical Twilight
Astronomical Twilight
Moon
Length of Visible Light
Length of Day
Tomorrow will be .
, % of the Moon is Illuminated

Today's Extremes

State Highs State Lows

Community

WunderPhotos

Upload Photos

1,935,203 photos uploaded!

WunderBlog® & News

Nearby

Air Quality

  Air Quality AQ Index Pollutant
Not available.

Snow Depth

Station Depth Elevation

Earthquake Activity

City Distance Mag. Time & Date
Minimum magnitude displayed is 2.5.

Coastal Water Temperatures

Place Temperature

Stations

Nearby Weather Stations

Station Location Temp. Windchill Dew Point Humidity Wind Precip. Elev Updated Type
                   

Watches & Warnings

There are currently no watches in effect.